sensor_id;sensor_type;location;lat;lon;timestamp;temperature;humidity
39033;DHT22;24794;51.982;5.878;2023-07-31T00:00:26;15.90;99.90
39033;DHT22;24794;51.982;5.878;2023-07-31T00:01:26;15.90;99.90
39033;DHT22;24794;51.982;5.878;2023-07-31T00:02:27;15.90;99.90
39033;DHT22;24794;51.982;5.878;2023-07-31T00:03:27;15.90;99.90
39033;DHT22;24794;51.982;5.878;2023-07-31T00:04:28;16.00;99.90
39033;DHT22;24794;51.982;5.878;2023-07-31T00:05:28;16.00;99.90
39033;DHT22;24794;51.982;5.878;2023-07-31T00:06:29;16.00;99.90
39033;DHT22;24794;51.982;5.878;2023-07-31T00:07:29;16.00;99.90
39033;DHT22;24794;51.982;5.878;2023-07-31T00:08:30;16.00;99.90
39033;DHT22;24794;51.982;5.878;2023-07-31T00:09:30;16.00;99.90
39033;DHT22;24794;51.982;5.878;2023-07-31T00:10:31;16.00;99.90
39033;DHT22;24794;51.982;5.878;2023-07-31T00:11:31;16.00;99.90
39033;DHT22;24794;51.982;5.878;2023-07-31T00:12:32;16.10;99.90
39033;DHT22;24794;51.982;5.878;2023-07-31T00:13:33;16.00;99.90
39033;DHT22;24794;51.982;5.878;2023-07-31T00:14:33;16.10;99.90
39033;DHT22;24794;51.982;5.878;2023-07-31T00:15:34;16.10;99.90
39033;DHT22;24794;51.982;5.878;2023-07-31T00:16:34;16.10;99.90
39033;DHT22;24794;51.982;5.878;2023-07-31T00:17:35;16.20;99.90
39033;DHT22;24794;51.982;5.878;2023-07-31T00:18:36;16.20;99.90
39033;DHT22;24794;51.982;5.878;2023-07-31T00:19:36;16.20;99.90
39033;DHT22;24794;51.982;5.878;2023-07-31T00:20:37;16.20;99.90
39033;DHT22;24794;51.982;5.878;2023-07-31T00:21:37;16.20;99.90
39033;DHT22;24794;51.982;5.878;2023-07-31T00:22:38;16.20;99.90
39033;DHT22;24794;51.982;5.878;2023-07-31T00:23:39;16.20;99.90
39033;DHT22;24794;51.982;5.878;2023-07-31T00:24:39;16.20;99.90
39033;DHT22;24794;51.982;5.878;2023-07-31T00:25:40;16.20;99.90
39033;DHT22;24794;51.982;5.878;2023-07-31T00:26:40;16.30;99.90
39033;DHT22;24794;51.982;5.878;2023-07-31T00:27:41;16.30;99.90
39033;DHT22;24794;51.982;5.878;2023-07-31T00:28:44;16.30;99.90
39033;DHT22;24794;51.982;5.878;2023-07-31T00:29:45;16.30;99.90
39033;DHT22;24794;51.982;5.878;2023-07-31T00:30:45;16.40;99.90
39033;DHT22;24794;51.982;5.878;2023-07-31T00:31:46;16.40;99.90
39033;DHT22;24794;51.982;5.878;2023-07-31T00:32:46;16.40;99.90
39033;DHT22;24794;51.982;5.878;2023-07-31T00:33:47;16.50;99.90
39033;DHT22;24794;51.982;5.878;2023-07-31T00:34:47;16.50;99.90
39033;DHT22;24794;51.982;5.878;2023-07-31T00:35:48;16.50;99.90
39033;DHT22;24794;51.982;5.878;2023-07-31T00:36:49;16.50;99.90
39033;DHT22;24794;51.982;5.878;2023-07-31T00:37:49;16.50;99.90
39033;DHT22;24794;51.982;5.878;2023-07-31T00:38:50;16.50;99.90
39033;DHT22;24794;51.982;5.878;2023-07-31T00:39:50;16.50;99.90
39033;DHT22;24794;51.982;5.878;2023-07-31T00:40:51;16.50;99.90
39033;DHT22;24794;51.982;5.878;2023-07-31T00:41:51;16.50;99.90
39033;DHT22;24794;51.982;5.878;2023-07-31T00:42:52;16.50;99.90
39033;DHT22;24794;51.982;5.878;2023-07-31T00:43:52;16.50;99.90
39033;DHT22;24794;51.982;5.878;2023-07-31T00:44:53;16.50;99.90
39033;DHT22;24794;51.982;5.878;2023-07-31T00:45:53;16.50;99.90
39033;DHT22;24794;51.982;5.878;2023-07-31T00:46:54;16.40;99.90
39033;DHT22;24794;51.982;5.878;2023-07-31T00:47:56;16.40;99.90
39033;DHT22;24794;51.982;5.878;2023-07-31T00:48:57;16.40;99.90
39033;DHT22;24794;51.982;5.878;2023-07-31T00:49:58;16.40;99.90
39033;DHT22;24794;51.982;5.878;2023-07-31T00:50:58;16.40;99.90
39033;DHT22;24794;51.982;5.878;2023-07-31T00:51:59;16.40;99.90
39033;DHT22;24794;51.982;5.878;2023-07-31T00:53:00;16.50;99.90
39033;DHT22;24794;51.982;5.878;2023-07-31T00:54:00;16.50;99.90
39033;DHT22;24794;51.982;5.878;2023-07-31T00:55:02;16.50;99.90
39033;DHT22;24794;51.982;5.878;2023-07-31T00:56:03;16.50;99.90
39033;DHT22;24794;51.982;5.878;2023-07-31T00:57:04;16.50;99.90
39033;DHT22;24794;51.982;5.878;2023-07-31T00:58:05;16.50;99.90
39033;DHT22;24794;51.982;5.878;2023-07-31T00:59:05;16.50;99.90
39033;DHT22;24794;51.982;5.878;2023-07-31T01:00:07;16.50;99.90
39033;DHT22;24794;51.982;5.878;2023-07-31T01:01:07;16.60;99.90
39033;DHT22;24794;51.982;5.878;2023-07-31T01:02:08;16.60;99.90
39033;DHT22;24794;51.982;5.878;2023-07-31T01:03:10;16.60;99.90
39033;DHT22;24794;51.982;5.878;2023-07-31T01:04:11;16.60;99.90
39033;DHT22;24794;51.982;5.878;2023-07-31T01:05:13;16.60;99.90
39033;DHT22;24794;51.982;5.878;2023-07-31T01:06:40;16.60;99.90
39033;DHT22;24794;51.982;5.878;2023-07-31T01:07:52;16.70;99.90
39033;DHT22;24794;51.982;5.878;2023-07-31T01:09:07;16.70;99.90
39033;DHT22;24794;51.982;5.878;2023-07-31T01:10:16;16.70;99.90
39033;DHT22;24794;51.982;5.878;2023-07-31T01:11:25;16.70;99.90
39033;DHT22;24794;51.982;5.878;2023-07-31T01:12:27;16.80;99.90
39033;DHT22;24794;51.982;5.878;2023-07-31T01:13:29;16.80;99.90
39033;DHT22;24794;51.982;5.878;2023-07-31T01:14:30;16.80;99.90
39033;DHT22;24794;51.982;5.878;2023-07-31T01:15:31;16.80;99.90
39033;DHT22;24794;51.982;5.878;2023-07-31T01:16:31;16.80;99.90
39033;DHT22;24794;51.982;5.878;2023-07-31T01:17:32;16.80;99.90
39033;DHT22;24794;51.982;5.878;2023-07-31T01:18:32;16.80;99.90
39033;DHT22;24794;51.982;5.878;2023-07-31T01:19:33;16.90;99.90
39033;DHT22;24794;51.982;5.878;2023-07-31T01:20:35;16.80;99.90
39033;DHT22;24794;51.982;5.878;2023-07-31T01:24:14;16.90;99.90
39033;DHT22;24794;51.982;5.878;2023-07-31T01:25:51;16.90;99.90
39033;DHT22;24794;51.982;5.878;2023-07-31T01:26:58;16.90;99.90
39033;DHT22;24794;51.982;5.878;2023-07-31T01:28:09;16.90;99.90
39033;DHT22;24794;51.982;5.878;2023-07-31T01:29:18;16.90;99.90
39033;DHT22;24794;51.982;5.878;2023-07-31T01:30:25;16.90;99.90
39033;DHT22;24794;51.982;5.878;2023-07-31T01:31:29;16.90;99.90
39033;DHT22;24794;51.982;5.878;2023-07-31T01:32:30;16.90;99.90
39033;DHT22;24794;51.982;5.878;2023-07-31T01:33:31;16.90;99.90
39033;DHT22;24794;51.982;5.878;2023-07-31T01:34:32;16.90;99.90
39033;DHT22;24794;51.982;5.878;2023-07-31T01:35:34;16.90;99.90
39033;DHT22;24794;51.982;5.878;2023-07-31T01:36:35;16.90;99.90
39033;DHT22;24794;51.982;5.878;2023-07-31T01:37:36;16.90;99.90
39033;DHT22;24794;51.982;5.878;2023-07-31T01:38:36;16.90;99.90
39033;DHT22;24794;51.982;5.878;2023-07-31T01:39:37;16.90;99.90
39033;DHT22;24794;51.982;5.878;2023-07-31T01:40:40;16.90;99.90
39033;DHT22;24794;51.982;5.878;2023-07-31T01:41:41;16.90;99.90
39033;DHT22;24794;51.982;5.878;2023-07-31T01:42:41;16.90;99.90
39033;DHT22;24794;51.982;5.878;2023-07-31T01:43:42;17.00;99.90
39033;DHT22;24794;51.982;5.878;2023-07-31T01:44:42;17.00;99.90
39033;DHT22;24794;51.982;5.878;2023-07-31T01:45:43;16.90;99.90
39033;DHT22;24794;51.982;5.878;2023-07-31T01:46:43;16.90;99.90
39033;DHT22;24794;51.982;5.878;2023-07-31T01:47:44;17.00;99.90
39033;DHT22;24794;51.982;5.878;2023-07-31T01:48:44;17.00;99.90
39033;DHT22;24794;51.982;5.878;2023-07-31T01:49:45;16.90;99.90
39033;DHT22;24794;51.982;5.878;2023-07-31T01:50:45;17.00;99.90
39033;DHT22;24794;51.982;5.878;2023-07-31T01:51:46;17.00;99.90
39033;DHT22;24794;51.982;5.878;2023-07-31T01:52:46;16.90;99.90
39033;DHT22;24794;51.982;5.878;2023-07-31T01:53:47;17.00;99.90
39033;DHT22;24794;51.982;5.878;2023-07-31T01:54:47;17.00;99.90
39033;DHT22;24794;51.982;5.878;2023-07-31T01:55:48;17.00;99.90
39033;DHT22;24794;51.982;5.878;2023-07-31T01:56:48;17.00;99.90
39033;DHT22;24794;51.982;5.878;2023-07-31T01:57:49;17.00;99.90
39033;DHT22;24794;51.982;5.878;2023-07-31T01:58:49;17.00;99.90
39033;DHT22;24794;51.982;5.878;2023-07-31T01:59:50;17.00;99.90
39033;DHT22;24794;51.982;5.878;2023-07-31T02:00:51;17.00;99.90
39033;DHT22;24794;51.982;5.878;2023-07-31T02:01:51;17.10;99.90
39033;DHT22;24794;51.982;5.878;2023-07-31T02:02:52;17.10;99.90
39033;DHT22;24794;51.982;5.878;2023-07-31T02:03:52;17.00;99.90
39033;DHT22;24794;51.982;5.878;2023-07-31T02:04:53;17.00;99.90
39033;DHT22;24794;51.982;5.878;2023-07-31T02:05:54;17.10;99.90
39033;DHT22;24794;51.982;5.878;2023-07-31T02:06:54;17.10;99.90
39033;DHT22;24794;51.982;5.878;2023-07-31T02:07:55;17.00;99.90
39033;DHT22;24794;51.982;5.878;2023-07-31T02:08:55;17.00;99.90
39033;DHT22;24794;51.982;5.878;2023-07-31T02:09:56;17.00;99.90
39033;DHT22;24794;51.982;5.878;2023-07-31T02:10:56;17.10;99.90
39033;DHT22;24794;51.982;5.878;2023-07-31T02:11:57;17.10;99.90
39033;DHT22;24794;51.982;5.878;2023-07-31T02:12:58;17.00;99.90
39033;DHT22;24794;51.982;5.878;2023-07-31T02:13:58;17.00;99.90
39033;DHT22;24794;51.982;5.878;2023-07-31T02:14:59;17.00;99.90
39033;DHT22;24794;51.982;5.878;2023-07-31T02:15:59;17.00;99.90
39033;DHT22;24794;51.982;5.878;2023-07-31T02:17:00;17.00;99.90
39033;DHT22;24794;51.982;5.878;2023-07-31T02:18:00;17.00;99.90
39033;DHT22;24794;51.982;5.878;2023-07-31T02:19:01;16.90;99.90
39033;DHT22;24794;51.982;5.878;2023-07-31T02:20:01;16.90;99.90
39033;DHT22;24794;51.982;5.878;2023-07-31T02:21:02;16.90;99.90
39033;DHT22;24794;51.982;5.878;2023-07-31T02:22:03;16.80;99.90
39033;DHT22;24794;51.982;5.878;2023-07-31T02:23:03;16.80;99.90
39033;DHT22;24794;51.982;5.878;2023-07-31T02:24:04;16.80;99.90
39033;DHT22;24794;51.982;5.878;2023-07-31T02:25:05;16.80;99.90
39033;DHT22;24794;51.982;5.878;2023-07-31T02:26:05;16.70;99.90
39033;DHT22;24794;51.982;5.878;2023-07-31T02:27:06;16.70;99.90
39033;DHT22;24794;51.982;5.878;2023-07-31T02:28:07;16.70;99.90
39033;DHT22;24794;51.982;5.878;2023-07-31T02:29:08;16.70;99.90
39033;DHT22;24794;51.982;5.878;2023-07-31T02:30:09;16.70;99.90
39033;DHT22;24794;51.982;5.878;2023-07-31T02:31:09;16.70;99.90
39033;DHT22;24794;51.982;5.878;2023-07-31T02:32:10;16.70;99.90
39033;DHT22;24794;51.982;5.878;2023-07-31T02:33:10;16.60;99.90
39033;DHT22;24794;51.982;5.878;2023-07-31T02:34:11;16.60;99.90
39033;DHT22;24794;51.982;5.878;2023-07-31T02:35:11;16.60;99.90
39033;DHT22;24794;51.982;5.878;2023-07-31T02:36:15;16.60;99.90
39033;DHT22;24794;51.982;5.878;2023-07-31T02:37:16;16.60;99.90
39033;DHT22;24794;51.982;5.878;2023-07-31T02:38:16;16.60;99.90
39033;DHT22;24794;51.982;5.878;2023-07-31T02:39:17;16.60;99.90
39033;DHT22;24794;51.982;5.878;2023-07-31T02:40:17;16.50;99.90
39033;DHT22;24794;51.982;5.878;2023-07-31T02:41:18;16.50;99.90
39033;DHT22;24794;51.982;5.878;2023-07-31T02:42:18;16.50;99.90
39033;DHT22;24794;51.982;5.878;2023-07-31T02:43:19;16.50;99.90
39033;DHT22;24794;51.982;5.878;2023-07-31T02:44:19;16.50;99.90
39033;DHT22;24794;51.982;5.878;2023-07-31T02:45:21;16.50;99.90
39033;DHT22;24794;51.982;5.878;2023-07-31T02:46:21;16.50;99.90
39033;DHT22;24794;51.982;5.878;2023-07-31T02:47:24;16.50;99.90
39033;DHT22;24794;51.982;5.878;2023-07-31T02:48:25;16.50;99.90
39033;DHT22;24794;51.982;5.878;2023-07-31T02:49:25;16.50;99.90
39033;DHT22;24794;51.982;5.878;2023-07-31T02:50:26;16.50;99.90
39033;DHT22;24794;51.982;5.878;2023-07-31T02:51:28;16.50;99.90
39033;DHT22;24794;51.982;5.878;2023-07-31T02:52:28;16.50;99.90
39033;DHT22;24794;51.982;5.878;2023-07-31T02:53:29;16.50;99.90
39033;DHT22;24794;51.982;5.878;2023-07-31T02:54:29;16.50;99.90
39033;DHT22;24794;51.982;5.878;2023-07-31T02:55:30;16.50;99.90
39033;DHT22;24794;51.982;5.878;2023-07-31T02:56:30;16.60;99.90
39033;DHT22;24794;51.982;5.878;2023-07-31T02:57:31;16.50;99.90
39033;DHT22;24794;51.982;5.878;2023-07-31T02:58:31;16.60;99.90
39033;DHT22;24794;51.982;5.878;2023-07-31T02:59:32;16.60;99.90
39033;DHT22;24794;51.982;5.878;2023-07-31T03:00:32;16.60;99.90
39033;DHT22;24794;51.982;5.878;2023-07-31T03:01:33;16.60;99.90
39033;DHT22;24794;51.982;5.878;2023-07-31T03:02:33;16.60;99.90
39033;DHT22;24794;51.982;5.878;2023-07-31T03:03:34;16.50;99.90
39033;DHT22;24794;51.982;5.878;2023-07-31T03:04:34;16.60;99.90
39033;DHT22;24794;51.982;5.878;2023-07-31T03:05:35;16.60;99.90
39033;DHT22;24794;51.982;5.878;2023-07-31T03:06:35;16.60;99.90
39033;DHT22;24794;51.982;5.878;2023-07-31T03:07:36;16.60;99.90
39033;DHT22;24794;51.982;5.878;2023-07-31T03:08:36;16.60;99.90
39033;DHT22;24794;51.982;5.878;2023-07-31T03:09:37;16.60;99.90
39033;DHT22;24794;51.982;5.878;2023-07-31T03:10:37;16.60;99.90
39033;DHT22;24794;51.982;5.878;2023-07-31T03:11:38;16.60;99.90
39033;DHT22;24794;51.982;5.878;2023-07-31T03:12:40;16.60;99.90
39033;DHT22;24794;51.982;5.878;2023-07-31T03:13:40;16.60;99.90
39033;DHT22;24794;51.982;5.878;2023-07-31T03:14:41;16.60;99.90
39033;DHT22;24794;51.982;5.878;2023-07-31T03:15:42;16.60;99.90
39033;DHT22;24794;51.982;5.878;2023-07-31T03:16:44;16.70;99.90
39033;DHT22;24794;51.982;5.878;2023-07-31T03:17:44;16.60;99.90
39033;DHT22;24794;51.982;5.878;2023-07-31T03:18:45;16.60;99.90
39033;DHT22;24794;51.982;5.878;2023-07-31T03:19:45;16.70;99.90
39033;DHT22;24794;51.982;5.878;2023-07-31T03:20:46;16.70;99.90
39033;DHT22;24794;51.982;5.878;2023-07-31T03:21:46;16.70;99.90
39033;DHT22;24794;51.982;5.878;2023-07-31T03:22:47;16.70;99.90
39033;DHT22;24794;51.982;5.878;2023-07-31T03:23:47;16.70;99.90
39033;DHT22;24794;51.982;5.878;2023-07-31T03:24:48;16.70;99.90
39033;DHT22;24794;51.982;5.878;2023-07-31T03:25:58;16.60;99.90
39033;DHT22;24794;51.982;5.878;2023-07-31T03:26:59;16.60;99.90
39033;DHT22;24794;51.982;5.878;2023-07-31T03:27:59;16.60;99.90
39033;DHT22;24794;51.982;5.878;2023-07-31T03:29:00;16.70;99.90
39033;DHT22;24794;51.982;5.878;2023-07-31T03:30:02;16.70;99.90
39033;DHT22;24794;51.982;5.878;2023-07-31T03:31:02;16.60;99.90
39033;DHT22;24794;51.982;5.878;2023-07-31T03:32:03;16.70;99.90
39033;DHT22;24794;51.982;5.878;2023-07-31T03:33:04;16.70;99.90
39033;DHT22;24794;51.982;5.878;2023-07-31T03:34:04;16.70;99.90
39033;DHT22;24794;51.982;5.878;2023-07-31T03:35:05;16.60;99.90
39033;DHT22;24794;51.982;5.878;2023-07-31T03:36:06;16.60;99.90
39033;DHT22;24794;51.982;5.878;2023-07-31T03:37:06;16.60;99.90
39033;DHT22;24794;51.982;5.878;2023-07-31T03:38:09;16.70;99.90
39033;DHT22;24794;51.982;5.878;2023-07-31T03:39:10;16.70;99.90
39033;DHT22;24794;51.982;5.878;2023-07-31T03:40:10;16.70;99.90
39033;DHT22;24794;51.982;5.878;2023-07-31T03:41:11;16.70;99.90
39033;DHT22;24794;51.982;5.878;2023-07-31T03:42:12;16.70;99.90
39033;DHT22;24794;51.982;5.878;2023-07-31T03:43:12;16.70;99.90
39033;DHT22;24794;51.982;5.878;2023-07-31T03:44:13;16.60;99.90
39033;DHT22;24794;51.982;5.878;2023-07-31T03:45:14;16.60;99.90
39033;DHT22;24794;51.982;5.878;2023-07-31T03:46:14;16.70;99.90
39033;DHT22;24794;51.982;5.878;2023-07-31T03:47:15;16.70;99.90
39033;DHT22;24794;51.982;5.878;2023-07-31T03:48:15;16.70;99.90
39033;DHT22;24794;51.982;5.878;2023-07-31T03:49:16;16.70;99.90
39033;DHT22;24794;51.982;5.878;2023-07-31T03:50:17;16.70;99.90
39033;DHT22;24794;51.982;5.878;2023-07-31T03:51:17;16.70;99.90
39033;DHT22;24794;51.982;5.878;2023-07-31T03:52:18;16.70;99.90
39033;DHT22;24794;51.982;5.878;2023-07-31T03:53:18;16.70;99.90
39033;DHT22;24794;51.982;5.878;2023-07-31T03:54:19;16.70;99.90
39033;DHT22;24794;51.982;5.878;2023-07-31T03:55:19;16.70;99.90
39033;DHT22;24794;51.982;5.878;2023-07-31T03:56:22;16.70;99.90
39033;DHT22;24794;51.982;5.878;2023-07-31T03:57:22;16.70;99.90
39033;DHT22;24794;51.982;5.878;2023-07-31T03:58:23;16.70;99.90
39033;DHT22;24794;51.982;5.878;2023-07-31T03:59:23;16.70;99.90
39033;DHT22;24794;51.982;5.878;2023-07-31T04:00:26;16.70;99.90
39033;DHT22;24794;51.982;5.878;2023-07-31T04:01:27;16.70;99.90
39033;DHT22;24794;51.982;5.878;2023-07-31T04:02:27;16.70;99.90
39033;DHT22;24794;51.982;5.878;2023-07-31T04:03:28;16.70;99.90
39033;DHT22;24794;51.982;5.878;2023-07-31T04:04:29;16.60;99.90
39033;DHT22;24794;51.982;5.878;2023-07-31T04:05:32;16.70;99.90
39033;DHT22;24794;51.982;5.878;2023-07-31T04:06:33;16.70;99.90
39033;DHT22;24794;51.982;5.878;2023-07-31T04:07:34;16.70;99.90
39033;DHT22;24794;51.982;5.878;2023-07-31T04:08:34;16.60;99.90
39033;DHT22;24794;51.982;5.878;2023-07-31T04:09:35;16.70;99.90
39033;DHT22;24794;51.982;5.878;2023-07-31T04:10:35;16.70;99.90
39033;DHT22;24794;51.982;5.878;2023-07-31T04:11:36;16.60;99.90
39033;DHT22;24794;51.982;5.878;2023-07-31T04:12:36;16.60;99.90
39033;DHT22;24794;51.982;5.878;2023-07-31T04:13:37;16.70;99.90
39033;DHT22;24794;51.982;5.878;2023-07-31T04:14:37;16.70;99.90
39033;DHT22;24794;51.982;5.878;2023-07-31T04:15:38;16.70;99.90
39033;DHT22;24794;51.982;5.878;2023-07-31T04:16:38;16.60;99.90
39033;DHT22;24794;51.982;5.878;2023-07-31T04:17:39;16.70;99.90
39033;DHT22;24794;51.982;5.878;2023-07-31T04:18:40;16.60;99.90
39033;DHT22;24794;51.982;5.878;2023-07-31T04:19:40;16.60;99.90
39033;DHT22;24794;51.982;5.878;2023-07-31T04:20:41;16.70;99.90
39033;DHT22;24794;51.982;5.878;2023-07-31T04:21:41;16.70;99.90
39033;DHT22;24794;51.982;5.878;2023-07-31T04:22:42;16.60;99.90
39033;DHT22;24794;51.982;5.878;2023-07-31T04:23:42;16.70;99.90
39033;DHT22;24794;51.982;5.878;2023-07-31T04:24:43;16.60;99.90
39033;DHT22;24794;51.982;5.878;2023-07-31T04:25:43;16.70;99.90
39033;DHT22;24794;51.982;5.878;2023-07-31T04:26:43;16.70;99.90
39033;DHT22;24794;51.982;5.878;2023-07-31T04:27:44;16.70;99.90
39033;DHT22;24794;51.982;5.878;2023-07-31T04:28:44;16.70;99.90
39033;DHT22;24794;51.982;5.878;2023-07-31T04:29:45;16.70;99.90
39033;DHT22;24794;51.982;5.878;2023-07-31T04:30:47;16.70;99.90
39033;DHT22;24794;51.982;5.878;2023-07-31T04:31:48;16.60;99.90
39033;DHT22;24794;51.982;5.878;2023-07-31T04:32:48;16.70;99.90
39033;DHT22;24794;51.982;5.878;2023-07-31T04:33:49;16.70;99.90
39033;DHT22;24794;51.982;5.878;2023-07-31T04:34:49;16.70;99.90
39033;DHT22;24794;51.982;5.878;2023-07-31T04:35:51;16.70;99.90
39033;DHT22;24794;51.982;5.878;2023-07-31T04:36:52;16.70;99.90
39033;DHT22;24794;51.982;5.878;2023-07-31T04:37:53;16.70;99.90
39033;DHT22;24794;51.982;5.878;2023-07-31T04:38:53;16.70;99.90
39033;DHT22;24794;51.982;5.878;2023-07-31T04:39:54;16.70;99.90
39033;DHT22;24794;51.982;5.878;2023-07-31T04:40:54;16.70;99.90
39033;DHT22;24794;51.982;5.878;2023-07-31T04:41:55;16.70;99.90
39033;DHT22;24794;51.982;5.878;2023-07-31T04:42:55;16.70;99.90
39033;DHT22;24794;51.982;5.878;2023-07-31T04:43:56;16.70;99.90
39033;DHT22;24794;51.982;5.878;2023-07-31T04:44:56;16.70;99.90
39033;DHT22;24794;51.982;5.878;2023-07-31T04:45:57;16.70;99.90
39033;DHT22;24794;51.982;5.878;2023-07-31T04:46:58;16.70;99.90
39033;DHT22;24794;51.982;5.878;2023-07-31T04:47:58;16.70;99.90
39033;DHT22;24794;51.982;5.878;2023-07-31T04:49:00;16.70;99.90
39033;DHT22;24794;51.982;5.878;2023-07-31T04:50:01;16.70;99.90
39033;DHT22;24794;51.982;5.878;2023-07-31T04:51:01;16.70;99.90
39033;DHT22;24794;51.982;5.878;2023-07-31T04:52:02;16.80;99.90
39033;DHT22;24794;51.982;5.878;2023-07-31T04:53:02;16.70;99.90
39033;DHT22;24794;51.982;5.878;2023-07-31T04:54:03;16.70;99.90
39033;DHT22;24794;51.982;5.878;2023-07-31T04:55:04;16.70;99.90
39033;DHT22;24794;51.982;5.878;2023-07-31T04:56:04;16.80;99.90
39033;DHT22;24794;51.982;5.878;2023-07-31T04:57:06;16.80;99.90
39033;DHT22;24794;51.982;5.878;2023-07-31T04:58:06;16.80;99.90
39033;DHT22;24794;51.982;5.878;2023-07-31T04:59:07;16.80;99.90
39033;DHT22;24794;51.982;5.878;2023-07-31T05:00:08;16.70;99.90
39033;DHT22;24794;51.982;5.878;2023-07-31T05:01:08;16.80;99.90
39033;DHT22;24794;51.982;5.878;2023-07-31T05:02:12;16.80;99.90
39033;DHT22;24794;51.982;5.878;2023-07-31T05:03:13;16.80;99.90
39033;DHT22;24794;51.982;5.878;2023-07-31T05:04:14;16.80;99.90
39033;DHT22;24794;51.982;5.878;2023-07-31T05:05:15;16.80;99.90
39033;DHT22;24794;51.982;5.878;2023-07-31T05:06:15;16.80;99.90
39033;DHT22;24794;51.982;5.878;2023-07-31T05:07:16;16.80;99.90
39033;DHT22;24794;51.982;5.878;2023-07-31T05:08:17;16.70;99.90
39033;DHT22;24794;51.982;5.878;2023-07-31T05:09:17;16.70;99.90
39033;DHT22;24794;51.982;5.878;2023-07-31T05:10:18;16.80;99.90
39033;DHT22;24794;51.982;5.878;2023-07-31T05:11:19;16.80;99.90
39033;DHT22;24794;51.982;5.878;2023-07-31T05:12:19;16.70;99.90
39033;DHT22;24794;51.982;5.878;2023-07-31T05:13:20;16.70;99.90
39033;DHT22;24794;51.982;5.878;2023-07-31T05:14:20;16.70;99.90
39033;DHT22;24794;51.982;5.878;2023-07-31T05:15:21;16.80;99.90
39033;DHT22;24794;51.982;5.878;2023-07-31T05:16:21;16.80;99.90
39033;DHT22;24794;51.982;5.878;2023-07-31T05:17:22;16.80;99.90
39033;DHT22;24794;51.982;5.878;2023-07-31T05:18:23;16.70;99.90
39033;DHT22;24794;51.982;5.878;2023-07-31T05:19:23;16.70;99.90
39033;DHT22;24794;51.982;5.878;2023-07-31T05:20:24;16.80;99.90
39033;DHT22;24794;51.982;5.878;2023-07-31T05:21:24;16.70;99.90
39033;DHT22;24794;51.982;5.878;2023-07-31T05:22:25;16.70;99.90
39033;DHT22;24794;51.982;5.878;2023-07-31T05:23:25;16.70;99.90
39033;DHT22;24794;51.982;5.878;2023-07-31T05:24:26;16.80;99.90
39033;DHT22;24794;51.982;5.878;2023-07-31T05:25:26;16.70;99.90
39033;DHT22;24794;51.982;5.878;2023-07-31T05:26:27;16.70;99.90
39033;DHT22;24794;51.982;5.878;2023-07-31T05:27:27;16.70;99.90
39033;DHT22;24794;51.982;5.878;2023-07-31T05:28:28;16.70;99.90
39033;DHT22;24794;51.982;5.878;2023-07-31T05:29:28;16.70;99.90
39033;DHT22;24794;51.982;5.878;2023-07-31T05:30:32;16.70;99.90
39033;DHT22;24794;51.982;5.878;2023-07-31T05:31:32;16.70;99.90
39033;DHT22;24794;51.982;5.878;2023-07-31T05:32:33;16.70;99.90
39033;DHT22;24794;51.982;5.878;2023-07-31T05:33:33;16.70;99.90
39033;DHT22;24794;51.982;5.878;2023-07-31T05:34:34;16.60;99.90
39033;DHT22;24794;51.982;5.878;2023-07-31T05:35:34;16.70;99.90
39033;DHT22;24794;51.982;5.878;2023-07-31T05:36:35;16.70;99.90
39033;DHT22;24794;51.982;5.878;2023-07-31T05:37:35;16.60;99.90
39033;DHT22;24794;51.982;5.878;2023-07-31T05:38:36;16.60;99.90
39033;DHT22;24794;51.982;5.878;2023-07-31T05:39:36;16.60;99.90
39033;DHT22;24794;51.982;5.878;2023-07-31T05:40:37;16.60;99.90
39033;DHT22;24794;51.982;5.878;2023-07-31T05:41:37;16.60;99.90
39033;DHT22;24794;51.982;5.878;2023-07-31T05:42:38;16.50;99.90
39033;DHT22;24794;51.982;5.878;2023-07-31T05:43:39;16.50;99.90
39033;DHT22;24794;51.982;5.878;2023-07-31T05:44:39;16.50;99.90
39033;DHT22;24794;51.982;5.878;2023-07-31T05:45:40;16.50;99.90
39033;DHT22;24794;51.982;5.878;2023-07-31T05:46:40;16.50;99.90
39033;DHT22;24794;51.982;5.878;2023-07-31T05:47:41;16.50;99.90
39033;DHT22;24794;51.982;5.878;2023-07-31T05:48:41;16.40;99.90
39033;DHT22;24794;51.982;5.878;2023-07-31T05:49:42;16.40;99.90
39033;DHT22;24794;51.982;5.878;2023-07-31T05:50:43;16.40;99.90
39033;DHT22;24794;51.982;5.878;2023-07-31T05:51:44;16.40;99.90
39033;DHT22;24794;51.982;5.878;2023-07-31T05:52:44;16.40;99.90
39033;DHT22;24794;51.982;5.878;2023-07-31T05:53:45;16.30;99.90
39033;DHT22;24794;51.982;5.878;2023-07-31T05:54:45;16.30;99.90
39033;DHT22;24794;51.982;5.878;2023-07-31T05:55:48;16.30;99.90
39033;DHT22;24794;51.982;5.878;2023-07-31T05:56:48;16.30;99.90
39033;DHT22;24794;51.982;5.878;2023-07-31T05:57:49;16.30;99.90
39033;DHT22;24794;51.982;5.878;2023-07-31T05:58:49;16.30;99.90
39033;DHT22;24794;51.982;5.878;2023-07-31T05:59:50;16.30;99.90
39033;DHT22;24794;51.982;5.878;2023-07-31T06:00:51;16.30;99.90
39033;DHT22;24794;51.982;5.878;2023-07-31T06:01:52;16.30;99.90
39033;DHT22;24794;51.982;5.878;2023-07-31T06:02:53;16.30;99.90
39033;DHT22;24794;51.982;5.878;2023-07-31T06:03:53;16.30;99.90
39033;DHT22;24794;51.982;5.878;2023-07-31T06:04:54;16.30;99.90
39033;DHT22;24794;51.982;5.878;2023-07-31T06:05:54;16.30;99.90
39033;DHT22;24794;51.982;5.878;2023-07-31T06:06:55;16.30;99.90
39033;DHT22;24794;51.982;5.878;2023-07-31T06:07:57;16.30;99.90
39033;DHT22;24794;51.982;5.878;2023-07-31T06:08:57;16.30;99.90
39033;DHT22;24794;51.982;5.878;2023-07-31T06:09:58;16.30;99.90
39033;DHT22;24794;51.982;5.878;2023-07-31T06:11:04;16.30;99.90
39033;DHT22;24794;51.982;5.878;2023-07-31T06:12:06;16.30;99.90
39033;DHT22;24794;51.982;5.878;2023-07-31T06:13:06;16.30;99.90
39033;DHT22;24794;51.982;5.878;2023-07-31T06:14:07;16.30;99.90
39033;DHT22;24794;51.982;5.878;2023-07-31T06:15:08;16.30;99.90
39033;DHT22;24794;51.982;5.878;2023-07-31T06:16:08;16.30;99.90
39033;DHT22;24794;51.982;5.878;2023-07-31T06:17:09;16.40;99.90
39033;DHT22;24794;51.982;5.878;2023-07-31T06:18:09;16.40;99.90
39033;DHT22;24794;51.982;5.878;2023-07-31T06:19:10;16.40;99.90
39033;DHT22;24794;51.982;5.878;2023-07-31T06:20:11;16.40;99.90
39033;DHT22;24794;51.982;5.878;2023-07-31T06:21:12;16.30;99.90
39033;DHT22;24794;51.982;5.878;2023-07-31T06:22:12;16.40;99.90
39033;DHT22;24794;51.982;5.878;2023-07-31T06:23:13;16.40;99.90
39033;DHT22;24794;51.982;5.878;2023-07-31T06:24:13;16.40;99.90
39033;DHT22;24794;51.982;5.878;2023-07-31T06:25:19;16.40;99.90
39033;DHT22;24794;51.982;5.878;2023-07-31T06:26:19;16.40;99.90
39033;DHT22;24794;51.982;5.878;2023-07-31T06:27:20;16.40;99.90
39033;DHT22;24794;51.982;5.878;2023-07-31T06:28:21;16.40;99.90